Terminal Aerodrome Forecast
Issued by NWS Charleston, WV

Current Version | Previous Version | Text Only | Print | Product List | Glossary Off
Versions: 1 2 3 4 5 6 7 8 9 10 11 12 13 14 15 16 17 18 19 20 21 22 23 24 25

000
FTUS41 KRLX 151100
TAFEKN
TAF
KEKN 151127Z 1512/1612 00000KT 4SM BR OVC015
     FM151500 00000KT P6SM BKN025
     FM151700 VRB03KT 6SM BR SCT030
     FM151800 VRB03KT P6SM FEW250
     FM160800 17005KT 6SM -SHRA BKN050
     FM161100 18004KT 4SM -SHRA BR OVC030=

USA.gov is the U.S. government's official web portal to all federal, state and local government web resources and services.